createdAt,value
2023-04-30T00:03:19.430Z,99959.38
2023-04-30T00:08:23.756Z,99968.56
2023-04-30T00:13:27.544Z,99961.75
2023-04-30T00:18:31.590Z,99908.28
2023-04-30T00:23:35.568Z,99957.47
2023-04-30T00:28:39.920Z,99977.59
2023-04-30T00:33:44.182Z,99958.38
2023-04-30T00:38:48.101Z,99962.06
2023-04-30T00:43:52.195Z,99961.69
2023-04-30T00:48:56.349Z,99957.16
2023-04-30T00:54:04.251Z,99966.59
2023-04-30T00:59:08.196Z,99921.81
2023-04-30T01:04:13.075Z,99955.06
2023-04-30T01:09:17.186Z,99951.44
2023-04-30T01:14:42.512Z,99945.59
2023-04-30T01:19:47.357Z,99946.13
2023-04-30T01:25:20.050Z,99945.41
2023-04-30T01:30:26.239Z,99947.50
2023-04-30T01:35:53.807Z,99940.75
2023-04-30T01:41:00.796Z,99929.78
2023-04-30T01:46:23.214Z,99943.34
2023-04-30T01:51:40.862Z,99939.59
2023-04-30T01:57:03.702Z,99898.81
2023-04-30T02:02:08.136Z,99935.75
2023-04-30T02:07:14.304Z,99945.38
2023-04-30T02:12:18.239Z,99943.56
2023-04-30T02:17:22.584Z,99955.22
2023-04-30T02:22:27.165Z,99943.03
2023-04-30T02:27:32.736Z,99936.47
2023-04-30T02:32:37.309Z,99957.50
2023-04-30T02:37:41.694Z,99901.72
2023-04-30T02:42:45.815Z,99955.78
2023-04-30T02:47:49.757Z,99955.94
2023-04-30T02:52:54.049Z,99953.06
2023-04-30T02:57:58.046Z,99956.28
2023-04-30T03:03:02.239Z,99957.81
2023-04-30T03:08:06.634Z,99962.94
2023-04-30T03:13:10.516Z,99964.34
2023-04-30T03:18:14.807Z,99956.78
2023-04-30T03:23:18.794Z,99891.94
2023-04-30T03:28:22.938Z,99956.16
2023-04-30T03:33:27.266Z,99963.34
2023-04-30T03:38:31.639Z,99959.84
2023-04-30T03:43:35.661Z,99970.00
2023-04-30T03:48:39.599Z,99967.22
2023-04-30T03:53:43.657Z,99952.88
2023-04-30T03:58:47.962Z,99975.94
2023-04-30T04:03:52.121Z,99971.09
2023-04-30T04:08:56.343Z,99822.00
2023-04-30T04:14:00.169Z,99971.13
2023-04-30T04:19:05.258Z,99973.03
2023-04-30T04:24:10.231Z,99971.75
2023-04-30T04:29:14.166Z,99972.63
2023-04-30T04:34:20.569Z,99975.56
2023-04-30T04:39:24.746Z,99969.09
2023-04-30T04:44:29.573Z,99968.03
2023-04-30T04:49:33.720Z,99980.06
2023-04-30T04:54:37.796Z,99982.50
2023-04-30T04:59:41.887Z,99968.81
2023-04-30T05:04:48.049Z,99978.31
2023-04-30T05:09:52.069Z,99977.69
2023-04-30T05:14:56.254Z,99994.72
2023-04-30T05:20:00.669Z,99997.69
2023-04-30T05:25:06.040Z,99997.88
2023-04-30T05:30:10.618Z,100000.38
2023-04-30T05:35:14.640Z,100008.34
2023-04-30T05:40:19.021Z,99994.94
2023-04-30T05:45:23.756Z,100009.28
2023-04-30T05:50:27.881Z,99998.72
2023-04-30T05:55:32.472Z,99991.59
2023-04-30T06:00:36.764Z,99994.66
2023-04-30T06:05:42.149Z,100001.31
2023-04-30T06:10:46.463Z,100003.34
2023-04-30T06:15:50.426Z,100016.47
2023-04-30T06:20:54.589Z,99972.72
2023-04-30T06:25:58.613Z,100014.31
2023-04-30T06:31:02.687Z,100012.66
2023-04-30T06:36:07.179Z,100019.75
2023-04-30T06:41:11.237Z,100000.63
2023-04-30T06:46:16.316Z,100020.81
2023-04-30T06:51:20.164Z,99991.28
2023-04-30T06:56:24.224Z,100009.09
2023-04-30T07:01:28.360Z,100011.19
2023-04-30T07:06:32.255Z,100021.72
2023-04-30T07:11:36.548Z,100026.81
2023-04-30T07:16:40.308Z,99999.28
2023-04-30T07:21:45.206Z,100018.06
2023-04-30T07:26:49.311Z,100015.50
2023-04-30T07:31:53.716Z,100027.44
2023-04-30T07:36:57.758Z,100022.13
2023-04-30T07:42:04.075Z,100027.25
2023-04-30T07:47:08.420Z,100023.94
2023-04-30T07:52:13.084Z,100017.91
2023-04-30T07:57:17.140Z,100019.38
2023-04-30T08:02:21.776Z,99965.28
2023-04-30T08:07:26.272Z,100033.00
2023-04-30T08:12:30.281Z,99982.47
2023-04-30T08:17:35.754Z,100025.13
2023-04-30T08:22:40.344Z,100036.13
2023-04-30T08:27:44.725Z,100038.44
2023-04-30T08:32:50.242Z,100025.19
2023-04-30T08:37:54.887Z,100051.41
2023-04-30T08:43:06.991Z,100048.97
2023-04-30T08:48:17.091Z,100046.00
2023-04-30T08:53:22.433Z,100048.50
2023-04-30T08:58:26.504Z,100056.00
2023-04-30T09:03:33.473Z,100060.06
2023-04-30T09:08:48.703Z,100048.06
2023-04-30T09:13:54.335Z,100059.38
2023-04-30T09:18:58.460Z,100061.66
2023-04-30T09:24:05.964Z,100061.34
2023-04-30T09:29:10.916Z,100000.94
2023-04-30T09:34:15.919Z,100064.16
2023-04-30T09:39:19.857Z,100048.56
2023-04-30T09:44:32.723Z,100061.59
2023-04-30T09:49:38.957Z,100057.31
2023-04-30T09:54:45.929Z,100062.38
2023-04-30T09:59:53.459Z,100052.09
2023-04-30T10:05:00.191Z,100039.31
2023-04-30T10:10:12.062Z,100062.88
2023-04-30T10:15:21.483Z,100066.69
2023-04-30T10:20:27.884Z,100055.41
2023-04-30T10:25:33.936Z,100061.22
2023-04-30T10:30:39.270Z,100059.75
2023-04-30T10:36:09.960Z,100067.00
2023-04-30T10:41:13.887Z,100075.53
2023-04-30T10:46:24.992Z,100077.38
2023-04-30T10:51:50.548Z,100079.63
2023-04-30T10:56:57.337Z,100083.88
2023-04-30T11:02:03.025Z,100083.22
2023-04-30T11:07:11.357Z,100087.94
2023-04-30T11:12:21.839Z,100090.25
2023-04-30T11:17:28.381Z,100087.13
2023-04-30T11:22:36.835Z,100099.06
2023-04-30T11:27:45.927Z,100111.31
2023-04-30T11:32:51.381Z,100114.22
2023-04-30T11:37:58.443Z,100108.75
2023-04-30T11:43:02.363Z,100121.72
2023-04-30T11:48:06.667Z,100118.28
2023-04-30T11:53:11.278Z,100120.91
2023-04-30T11:58:16.356Z,100121.91
2023-04-30T12:03:20.640Z,100123.28
2023-04-30T12:08:25.023Z,100117.00
2023-04-30T12:13:32.041Z,100126.53
2023-04-30T12:18:36.111Z,100127.47
2023-04-30T12:23:40.209Z,100116.16
2023-04-30T12:28:44.237Z,100069.56
2023-04-30T12:33:56.534Z,100114.94
2023-04-30T12:39:08.614Z,100113.09
2023-04-30T12:44:18.006Z,100120.94
2023-04-30T12:49:30.262Z,100126.94
2023-04-30T12:54:35.324Z,100132.63
2023-04-30T12:59:57.071Z,100125.19
2023-04-30T13:05:01.567Z,100129.34
2023-04-30T13:10:08.098Z,100126.09
2023-04-30T13:15:12.202Z,100128.41
2023-04-30T13:20:19.801Z,100134.44
2023-04-30T13:25:24.117Z,100125.25
2023-04-30T13:30:28.176Z,100135.13
2023-04-30T13:35:32.122Z,100124.09
2023-04-30T13:40:36.098Z,100142.31
2023-04-30T13:45:40.085Z,100133.88
2023-04-30T13:50:44.093Z,100139.06
2023-04-30T13:55:47.905Z,100124.97
2023-04-30T14:00:52.335Z,100143.41
2023-04-30T14:05:56.753Z,100129.06
2023-04-30T14:11:01.059Z,100150.09
2023-04-30T14:16:05.211Z,100095.00
2023-04-30T14:21:09.072Z,100147.91
2023-04-30T14:26:13.678Z,100139.41
2023-04-30T14:31:17.612Z,100145.75
2023-04-30T14:36:21.815Z,100140.50
2023-04-30T14:41:26.592Z,100139.91
2023-04-30T14:46:30.559Z,100142.66
2023-04-30T14:51:34.587Z,100131.81
2023-04-30T14:56:38.567Z,100139.84
2023-04-30T15:01:43.469Z,100144.44
2023-04-30T15:06:48.472Z,100150.00
2023-04-30T15:11:52.608Z,100149.66
2023-04-30T15:16:57.521Z,100147.53
2023-04-30T15:22:01.894Z,100139.34
2023-04-30T15:27:06.079Z,100143.63
2023-04-30T15:32:09.920Z,100086.06
2023-04-30T15:37:13.980Z,100142.34
2023-04-30T15:42:17.734Z,100137.34
2023-04-30T15:47:23.854Z,100130.75
2023-04-30T15:52:28.168Z,100136.50
2023-04-30T15:57:31.939Z,100144.50
2023-04-30T16:02:36.898Z,100080.09
2023-04-30T16:07:43.905Z,100127.47
2023-04-30T16:12:48.639Z,100131.81
2023-04-30T16:17:52.712Z,100130.06
2023-04-30T16:22:57.844Z,100120.25
2023-04-30T16:28:01.749Z,100124.47
2023-04-30T16:33:06.260Z,100117.53
2023-04-30T16:38:10.933Z,100117.66
2023-04-30T16:43:15.069Z,100120.66
2023-04-30T16:48:18.923Z,100062.72
2023-04-30T16:53:23.045Z,100072.75
2023-04-30T16:58:27.128Z,100105.22
2023-04-30T17:03:35.695Z,100093.69
2023-04-30T17:08:40.982Z,100109.78
2023-04-30T17:13:44.885Z,100108.19
2023-04-30T17:18:48.941Z,100104.25
2023-04-30T17:23:53.009Z,100100.00
2023-04-30T17:28:57.234Z,100098.66
2023-04-30T17:34:01.069Z,100106.44
2023-04-30T17:39:06.701Z,100099.09
2023-04-30T17:44:10.499Z,100103.19
2023-04-30T17:49:14.661Z,100103.97
2023-04-30T17:54:18.615Z,100104.13
2023-04-30T17:59:22.965Z,100106.63
2023-04-30T18:04:27.042Z,100099.72
2023-04-30T18:09:32.838Z,100092.19
2023-04-30T18:14:36.853Z,100075.41
2023-04-30T18:19:45.130Z,100068.50
2023-04-30T18:24:48.989Z,100083.53
2023-04-30T18:29:53.358Z,100061.59
2023-04-30T18:34:57.825Z,100073.03
2023-04-30T18:40:01.663Z,100070.69
2023-04-30T18:45:09.859Z,100069.72
2023-04-30T18:50:18.154Z,100075.84
2023-04-30T18:55:21.940Z,100064.53
2023-04-30T19:00:26.204Z,100066.28
2023-04-30T19:05:30.039Z,100049.13
2023-04-30T19:10:37.349Z,100049.19
2023-04-30T19:15:44.636Z,100057.25
2023-04-30T19:21:02.690Z,100057.34
2023-04-30T19:26:06.727Z,100055.59
2023-04-30T19:31:12.089Z,99979.91
2023-04-30T19:36:16.319Z,100041.84
2023-04-30T19:41:20.228Z,100048.75
2023-04-30T19:46:24.291Z,99985.16
2023-04-30T19:51:28.369Z,100036.16
2023-04-30T19:56:32.857Z,100038.22
2023-04-30T20:01:37.562Z,100037.97
2023-04-30T20:06:41.576Z,100043.16
2023-04-30T20:11:50.254Z,100027.50
2023-04-30T20:16:54.804Z,100029.09
2023-04-30T20:21:58.724Z,100017.16
2023-04-30T20:27:04.901Z,100016.41
2023-04-30T20:32:09.337Z,100025.91
2023-04-30T20:37:13.464Z,99998.66
2023-04-30T20:42:17.595Z,100017.25
2023-04-30T20:47:21.672Z,100018.09
2023-04-30T20:52:25.709Z,100004.56
2023-04-30T20:57:29.777Z,100013.69
2023-04-30T21:02:34.904Z,100009.34
2023-04-30T21:07:39.004Z,99998.34
2023-04-30T21:12:43.347Z,100005.09
2023-04-30T21:17:47.302Z,100004.34
2023-04-30T21:22:53.165Z,100014.50
2023-04-30T21:27:57.704Z,100017.84
2023-04-30T21:33:01.711Z,100013.44
2023-04-30T21:38:05.950Z,99989.75
2023-04-30T21:43:10.779Z,100011.78
2023-04-30T21:48:14.858Z,100024.69
2023-04-30T21:53:19.015Z,100027.56
2023-04-30T21:58:23.017Z,100014.00
2023-04-30T22:03:27.220Z,100019.31
2023-04-30T22:08:31.330Z,100012.41
2023-04-30T22:13:35.481Z,100011.03
2023-04-30T22:18:40.334Z,100007.22
2023-04-30T22:23:44.298Z,100001.06
2023-04-30T22:28:48.229Z,100013.22
2023-04-30T22:33:52.387Z,100008.06
2023-04-30T22:38:57.075Z,100002.75
2023-04-30T22:44:01.783Z,99999.50
2023-04-30T22:49:05.977Z,100007.16
2023-04-30T22:54:10.567Z,100001.00
2023-04-30T22:59:14.606Z,100006.09
2023-04-30T23:04:18.576Z,100001.22
2023-04-30T23:09:22.651Z,99992.88
2023-04-30T23:14:26.790Z,100009.44
2023-04-30T23:19:30.575Z,100002.50
2023-04-30T23:24:36.679Z,100009.19
2023-04-30T23:29:40.765Z,100016.03
2023-04-30T23:34:44.797Z,100010.03
2023-04-30T23:39:48.648Z,100005.69
2023-04-30T23:44:52.761Z,100010.19
2023-04-30T23:49:57.259Z,100009.28
2023-04-30T23:55:01.429Z,100010.03
